Nearby METAR Reports

 

KMTN - Baltimore/Martin, Maryland, USA
Distance from station: SSE 8mi, 13km
Updated: Sun, 31-Aug-2014 4:03am EDT
Mostly cloudy
Mostly cloudy
 Wind from S
Wind: S 3 mph , 6 km/h
Temperature: 77°F , 25°C
Dew Point: 73°F , 23°C
Humidity: 89%
Barometer: 30.12 inHg , 1020 hPa
Clouds: Mostly cloudy
Visibility: 10 miles , 16 km
Cloud details: Mostly cloudy 1300 ft
Mostly cloudy 3900 ft
Mostly cloudy 5000 ft
2014/08/31 08:03 KMTN 310803Z AUTO 17003KT 10SM BKN013 BKN039 BKN050 25/23 A3012 RMK AO2
KDMH - Baltimore/Dwntwn, Maryland, USA
Distance from station: SW 12mi, 19km
Updated: Sun, 31-Aug-2014 3:54am EDT

 
Temperature: 75°F , 24°C
Dew Point: 72°F , 22°C
Humidity: 89%
Barometer: 30.12 inHg , 1020 hPa
2014/08/31 07:54 KDMH 310754Z AUTO 24/22 A3012 RMK AO1 SLP197 T02440222
 
KBWI - Balto/Wash Intl, Maryland, USA
Distance from station: SSW 20mi, 33km
Updated: Sun, 31-Aug-2014 3:54am EDT
Overcast
Overcast
 Wind from calm
Wind: Calm
Temperature: 73°F , 23°C
Dew Point: 72°F , 22°C
Humidity: 94%
Barometer: 30.11 inHg , 1019.6 hPa
Clouds: Overcast
Visibility: 9 miles , 14 km
Cloud details: Partly cloudy 700 ft
Partly cloudy 3900 ft
Overcast 4700 ft
2014/08/31 07:54 KBWI 310754Z 00000KT 9SM SCT007 SCT039 OVC047 23/22 A3011 RMK AO2 SLP194 T02330222
KDMW - Carroll Cnty, Maryland, USA
Distance from station: WNW 30mi, 48km
Updated: Sun, 31-Aug-2014 4:00am EDT
Partly cloudy
Partly cloudy
 Wind from S
Wind: S 8 mph , 13 km/h
Temperature: 73°F , 23°C
Dew Point: 72°F , 22°C
Humidity: 94%
Barometer: 30.12 inHg , 1020 hPa
Clouds: Partly cloudy
Visibility: 7 miles , 11 km
Cloud details: Partly cloudy 700 ft
2014/08/31 08:00 KDMW 310800Z AUTO 17007KT 7SM SCT007 23/22 A3012 RMK AO2
 
KNAK - Annapolis/Naval, Maryland, USA
Distance from station: S 30mi, 48km
Updated: Sun, 31-Aug-2014 3:54am EDT
Few Clouds
Few Clouds
 Wind from S
Wind: S 8 mph , 13 km/h
Temperature: 75°F , 24°C
Dew Point: 72°F , 22°C
Humidity: 89%
Barometer: 30.11 inHg , 1019.6 hPa
Clouds: Few Clouds
Visibility: 10 miles , 16 km
Cloud details: Few Clouds 1400 ft
Few Clouds 4500 ft
2014/08/31 07:54 KNAK 310754Z AUTO 18007KT 10SM FEW014 FEW045 24/22 A3011 RMK AO2 SLP197 T02440222
KW29 - Stevensville, Maryland, USA
Distance from station: SSE 31mi, 50km
Updated: Sun, 31-Aug-2014 4:03am EDT

 Wind from S
Wind: S 8 mph , 13 km/h
Temperature: 77°F , 25°C
Dew Point: 73°F , 23°C
Humidity: 89%
Barometer: 30.12 inHg , 1020 hPa
Visibility: 10 miles , 16 km
2014/08/31 08:03 KW29 310803Z AUTO 17007KT 10SM 25/23 A3012 RMK AO1
 
KCGS - College Park, Maryland, USA
Distance from station: SW 38mi, 61km
Updated: Sun, 31-Aug-2014 4:00am EDT
Partly cloudy
Partly cloudy
 Wind from calm
Wind: Calm
Temperature: 73°F , 23°C
Dew Point: 72°F , 22°C
Humidity: 94%
Barometer: 30.11 inHg , 1019.6 hPa
Clouds: Partly cloudy
Visibility: 10 miles , 16 km
Cloud details: Partly cloudy 1000 ft
Partly cloudy 1400 ft
Partly cloudy 4300 ft
2014/08/31 08:00 KCGS 310800Z AUTO 00000KT 10SM SCT010 SCT014 SCT043 23/22 A3011 RMK AO1
KGAI - Gaithersburg, Maryland, USA
Distance from station: WSW 40mi, 65km
Updated: Sun, 31-Aug-2014 3:55am EDT
Partly cloudy
Partly cloudy
 Wind from SSE
Wind: SSE 6 mph , 9 km/h
Temperature: 73°F , 23°C
Dew Point: 70°F , 21°C
Humidity: 89%
Barometer: 30.15 inHg , 1021 hPa
Clouds: Partly cloudy
Visibility: 7 miles , 11 km
Cloud details: Partly cloudy 600 ft
2014/08/31 07:55 KGAI 310755Z AUTO 15005KT 7SM SCT006 23/21 A3015 RMK AO1
 
KTHV - York, Pennsylvania, USA
Distance from station: NNW 40mi, 65km
Updated: Sun, 31-Aug-2014 3:53am EDT
Overcast
Overcast
 Wind from calm
Wind: Calm
Temperature: 73°F , 23°C
Dew Point: 72°F , 22°C
Humidity: 94%
Barometer: 30.10 inHg , 1019.3 hPa
Clouds: Overcast
Visibility: 10 miles , 16 km
Cloud details: Overcast 1200 ft
2014/08/31 07:53 KTHV 310753Z AUTO 00000KT 10SM OVC012 23/22 A3010 RMK AO2 SLP190 T02330217
KFDK - Frederick, Maryland, USA
Distance from station: W 47mi, 75km
Updated: Sun, 31-Aug-2014 4:00am EDT
Overcast
Overcast
 Wind from calm
Wind: Calm
Barometer: 30.12 inHg , 1020 hPa
Clouds: Overcast
Visibility: 7 miles , 11 km
Cloud details: Overcast 1100 ft
2014/08/31 08:00 KFDK 310800Z AUTO 00000KT 7SM OVC011 A3012 RMK AO2
 
KESN - Easton/Newnam, Maryland, USA
Distance from station: SSE 48mi, 78km
Updated: Sun, 31-Aug-2014 4:15am EDT
Overcast
Overcast
 Wind from calm
Wind: Calm
Temperature: 75°F , 24°C
Dew Point: 75°F , 24°C
Humidity: 100%
Barometer: 30.16 inHg , 1021.3 hPa
Clouds: Overcast
Visibility: 10 miles , 16 km
Cloud details: Overcast 900 ft
2014/08/31 08:15 KESN 310815Z AUTO 00000KT 10SM OVC009 24/24 A3016 RMK AO2 T02410241
KDCA - Washington/Natl, Washington D.c., USA
Distance from station: SW 49mi, 79km
Updated: Sun, 31-Aug-2014 3:52am EDT
Mostly cloudy
Mostly cloudy
 Wind from S
Wind: S 7 mph , 11 km/h
Temperature: 77°F , 25°C
Dew Point: 72°F , 22°C
Humidity: 83%
Barometer: 30.12 inHg , 1020 hPa
Clouds: Mostly cloudy
Visibility: 8 miles , 13 km
Cloud details: Few Clouds 800 ft
Partly cloudy 14000 ft
Mostly cloudy 25000 ft
2014/08/31 07:52 KDCA 310752Z 19006KT 8SM FEW008 SCT140 BKN250 25/22 A3012 RMK AO2 SLP198 T02500222
 
KLNS - Lancaster, Pennsylvania, USA
Distance from station: N 49mi, 79km
Updated: Sun, 31-Aug-2014 3:53am EDT
Overcast
Overcast
 Wind from ESE
Wind: ESE 5 mph , 7 km/h
Temperature: 72°F , 22°C
Dew Point: 68°F , 20°C
Humidity: 88%
Barometer: 30.11 inHg , 1019.6 hPa
Clouds: Overcast
Visibility: 9 miles , 14 km
Cloud details: Overcast 1100 ft
2014/08/31 07:53 KLNS 310753Z AUTO 11004KT 9SM OVC011 22/20 A3011 RMK AO2 SLP193 T02220200 $
KILG - Wilmington, Delaware, USA
Distance from station: ENE 50mi, 81km
Updated: Sun, 31-Aug-2014 3:51am EDT
Overcast
Overcast
 Wind from S
Wind: S 3 mph , 6 km/h
Temperature: 73°F , 23°C
Dew Point: 68°F , 20°C
Humidity: 83%
Barometer: 30.14 inHg , 1020.7 hPa
Clouds: Overcast
Visibility: 10 miles , 16 km
Cloud details: Mostly cloudy 1200 ft
Overcast 1800 ft
2014/08/31 07:51 KILG 310751Z AUTO 18003KT 10SM BKN012 OVC018 23/20 A3014 RMK AO2 SLP203 T02280200